CheckWX is a tool to help pilots better visualize weather data.  It is not intended as a substitute for an official pre-flight weather briefing.

17:57:22 UTC

EGLF TAF
Farnborough Airport
Farnborough, United Kingdom
TAF EGLF 171702Z 1718/1723 19010KT 9999 SCT030 TEMPO 1718/1723 7000 SHRA

Oct-17@
18:00 UTC

Oct-17 @ 18:00 UTC

Oct-17@
23:00 UTC

Oct-17 @ 23:00 UTC

TAF EGLF 171702Z 1718/1723 19010KT 9999 SCT030
Wind
  • 190° at 10 KTS
Cloud Levels
  • Scattered at 3,000' AGL

Oct-17@
18:00 UTC

Oct-17 @ 18:00 UTC

Oct-17@
23:00 UTC

Oct-17 @ 23:00 UTC

TEMPO 1718/1723 7000 SHRA

Temporary

Temporary Changes expected for less than half the time period

Conditions
Rain